Portada
METAR-TAF:

METAR-TAF

Aeroports :

Dawadmi, Aràbia Saudita

latitud: 24-26-59N, longitud: 044-07-16E, altitud: 922 m

Observació

L'informe es va fer fa 1 hora i 15 minuts, a les 11:00 UTC
Vent 12 kt del Sud
Temperatura 33°C
Humitat 10%
Pressió 1016 hPa
Visibilitat 10 km o més
sense núvols per sota de 1500 mi sense presència de cumulonimbus.

METAR: OEDM 281100Z 19012KT CAVOK 33/M03 Q1016

Hora: 15:15 (12:15 UTC)

Pronòstic

L'informe es va fer fa 7 hores i 15 minuts, a les 05:00 UTC
Pronòstic vàlid del 28 a les 06 UTC al 28 a les 20 UTC
Vent 6 kt del Sud/Sud-Est
Visibilitat 10 km o més
sense núvols per sota de 1500 mi sense presència de cumulonimbus.
Evolucionant progressivament
l' 28 a les 06 UTC al 28 a les 08 UTC
Vent 13 kt del Sud/Sud-Oest
Evolucionant progressivament
l' 28 a les 18 UTC al 28 a les 20 UTC
Vent 8 kt del Sud/Sud-Est

TAF: OEDM 280500Z 2806/2820 16006KT CAVOK BECMG 2806/2808 21013KT BECMG 2818/2820 16008KT

Observacions i pronòstics meteorològics de més de 4000 aeroports (METAR i TAF).

Les estacions disponibles són els punts grocs i vermells al mapa.

Posi el ratolí al punt desitjat per veure el nom de l'estació.

Feu clic per veure les observacions i els pronòstics meteorològics.

Per canviar el mapa: feu clic els botons verds amb una creu de color negre per apropar; al botó verd amb un guió per allunyar la imatge; o en les fletxes verdes per a mapes adjacents.


METAR-TAF: